Time;durP1;ratioP1;P1;durP2;ratioP2;P2;SDS_P1;SDS_P2;PMS_P1;PMS_P2;Temp;Humidity;BMP_temperature;BMP_pressure;BME280_temperature;BME280_humidity;BME280_pressure;Samples;Min_cycle;Max_cycle;Signal;HPM_P1;HPM_P2
2023/10/15 00:00:20;;;;;;;6.15;1.27;;;;;;;3.97;100.00;93243.94;2097495;28;20084;-81
2023/10/15 00:01:21;;;;;;;2.63;1.00;;;;;;;4.03;100.00;93239.81;2098621;28;20100;-81
2023/10/15 00:02:22;;;;;;;1.45;1.20;;;;;;;4.01;100.00;93241.34;2106166;28;20024;-81
2023/10/15 00:03:23;;;;;;;2.33;1.10;;;;;;;4.02;100.00;93238.31;2106383;28;20089;-81
2023/10/15 00:04:24;;;;;;;2.20;1.15;;;;;;;3.97;100.00;93237.91;2107524;28;20125;-81
2023/10/15 00:05:27;;;;;;;1.67;1.00;;;;;;;3.96;100.00;93234.50;2097196;28;20030;-81
2023/10/15 00:06:30;;;;;;;1.40;1.00;;;;;;;4.06;100.00;93227.75;2082320;28;20116;-81
2023/10/15 00:07:31;;;;;;;2.80;1.40;;;;;;;4.16;100.00;93234.22;2086301;28;20021;-81
2023/10/15 00:08:32;;;;;;;1.90;1.10;;;;;;;4.13;100.00;93234.97;2098195;28;20012;-81
2023/10/15 00:09:33;;;;;;;3.67;1.15;;;;;;;4.25;100.00;93218.75;2097603;28;20119;-81
2023/10/15 00:10:37;;;;;;;2.13;1.08;;;;;;;4.25;100.00;93234.63;2097768;28;20453;-81
2023/10/15 00:11:38;;;;;;;3.75;1.20;;;;;;;4.50;100.00;93224.13;2098748;28;20039;-82
2023/10/15 00:12:39;;;;;;;4.03;1.40;;;;;;;4.49;100.00;93220.72;2099957;28;20017;-82
2023/10/15 00:13:40;;;;;;;1.92;1.05;;;;;;;4.69;100.00;93218.50;2107844;28;20030;-81
2023/10/15 00:14:42;;;;;;;2.33;1.30;;;;;;;4.66;100.00;93221.91;2103911;28;20474;-81
2023/10/15 00:15:43;;;;;;;4.60;1.10;;;;;;;4.75;100.00;93217.00;2102125;28;20016;-81
2023/10/15 00:16:45;;;;;;;6.45;1.27;;;;;;;4.78;100.00;93213.63;2112806;28;20087;-81
2023/10/15 00:17:47;;;;;;;4.32;1.13;;;;;;;4.83;100.00;93217.78;2103953;28;20085;-81
2023/10/15 00:18:49;;;;;;;1.35;0.88;;;;;;;4.95;100.00;93212.09;2087978;28;20020;-81
2023/10/15 00:19:51;;;;;;;2.75;1.38;;;;;;;5.01;100.00;93210.63;2098357;28;20034;-81
2023/10/15 00:20:53;;;;;;;3.63;1.05;;;;;;;5.05;100.00;93213.28;2092770;28;20104;-81
2023/10/15 00:21:55;;;;;;;4.20;1.23;;;;;;;5.17;100.00;93212.13;2098511;28;20570;-81
2023/10/15 00:22:56;;;;;;;5.00;1.45;;;;;;;5.17;100.00;93212.13;2105724;28;20419;-82
2023/10/15 00:23:57;;;;;;;4.82;1.35;;;;;;;5.20;100.00;93216.66;2105849;28;20064;-81
2023/10/15 00:24:58;;;;;;;3.78;1.35;;;;;;;5.31;100.00;93217.41;2097884;28;20036;-81
2023/10/15 00:25:59;;;;;;;3.72;1.20;;;;;;;5.34;100.00;93211.34;2089377;28;20055;-82
2023/10/15 00:27:00;;;;;;;2.85;1.35;;;;;;;5.41;100.00;93210.63;2089449;28;20020;-81
2023/10/15 00:28:06;;;;;;;5.35;1.20;;;;;;;5.42;100.00;93207.56;2082680;28;20025;-82
2023/10/15 00:29:08;;;;;;;3.80;1.58;;;;;;;5.44;100.00;93209.84;2086358;28;20025;-82
2023/10/15 00:30:13;;;;;;;7.40;1.13;;;;;;;5.37;100.00;93210.59;2095423;28;20021;-82
2023/10/15 00:31:14;;;;;;;4.88;1.33;;;;;;;5.41;100.00;93208.72;2097235;28;20036;-82
2023/10/15 00:32:15;;;;;;;3.97;1.42;;;;;;;5.35;100.00;93207.56;2104174;28;20119;-82
2023/10/15 00:33:16;;;;;;;2.97;1.10;;;;;;;5.32;100.00;93207.59;2089545;28;20024;-81
2023/10/15 00:34:17;;;;;;;2.72;1.27;;;;;;;5.31;100.00;93206.81;2087897;28;20453;-82
2023/10/15 00:35:21;;;;;;;3.03;1.10;;;;;;;5.26;100.00;93201.91;2089322;28;20029;-82
2023/10/15 00:36:27;;;;;;;3.72;1.02;;;;;;;5.13;100.00;93206.81;2098003;28;20495;-82
2023/10/15 00:37:28;;;;;;;2.88;1.20;;;;;;;5.12;100.00;93213.25;2101185;28;20032;-82
2023/10/15 00:38:29;;;;;;;4.95;1.10;;;;;;;5.20;100.00;93219.31;2106140;28;20161;-82
2023/10/15 00:39:30;;;;;;;6.57;1.33;;;;;;;5.03;100.00;93210.22;2097551;28;20035;-82
2023/10/15 00:40:31;;;;;;;5.65;1.40;;;;;;;4.98;100.00;93215.91;2105107;28;20028;-82
2023/10/15 00:41:32;;;;;;;5.63;1.20;;;;;;;4.91;100.00;93215.88;2105875;28;20042;-82
2023/10/15 00:42:34;;;;;;;2.88;0.82;;;;;;;4.97;100.00;93219.69;2094375;28;20036;-81
2023/10/15 00:43:36;;;;;;;3.22;0.93;;;;;;;5.16;100.00;93213.25;2097634;28;20023;-81
2023/10/15 00:44:37;;;;;;;4.13;1.20;;;;;;;5.19;100.00;93220.47;2089178;28;20386;-81
2023/10/15 00:45:47;;;;;;;3.35;1.35;;;;;;;5.18;100.00;93216.28;2105914;28;20063;-82
2023/10/15 00:46:54;;;;;;;2.97;1.08;;;;;;;5.10;100.00;93215.53;2098952;28;20024;-81
2023/10/15 00:49:14;;;;;;;3.42;0.93;;;;;;;4.76;100.00;93209.81;2094523;28;20111;-82
2023/10/15 00:50:16;;;;;;;1.73;0.80;;;;;;;4.71;100.00;93216.25;2106712;28;20024;-82
2023/10/15 00:51:20;;;;;;;5.15;1.00;;;;;;;4.87;100.00;93217.78;2099315;28;20021;-81
2023/10/15 00:52:29;;;;;;;2.00;0.90;;;;;;;4.69;100.00;93215.84;2099350;28;20025;-82
2023/10/15 00:53:31;;;;;;;3.25;0.93;;;;;;;4.78;100.00;93208.31;2097831;28;20070;-82
2023/10/15 00:54:33;;;;;;;2.47;0.95;;;;;;;4.82;100.00;93212.84;2091919;28;20052;-82
2023/10/15 00:55:35;;;;;;;5.40;1.05;;;;;;;4.77;100.00;93208.69;2090186;28;20390;-82
2023/10/15 00:56:37;;;;;;;2.10;1.00;;;;;;;4.59;100.00;93211.28;2097875;28;20082;-82
2023/10/15 00:57:45;;;;;;;3.28;0.93;;;;;;;4.67;100.00;93214.72;2109959;28;20451;-82
2023/10/15 00:59:55;;;;;;;3.10;1.27;;;;;;;4.74;100.00;93210.22;2106563;28;20436;-82
2023/10/15 01:01:00;;;;;;;3.22;1.10;;;;;;;4.89;100.00;93208.31;2105841;28;20381;-82
2023/10/15 01:03:09;;;;;;;2.95;0.90;;;;;;;4.97;100.00;93209.84;2096673;28;20851;-81
2023/10/15 01:04:11;;;;;;;2.22;1.30;;;;;;;5.00;100.00;93203.81;2100839;28;20182;-81
2023/10/15 01:05:14;;;;;;;4.50;0.93;;;;;;;4.80;100.00;93210.59;2103782;28;20127;-80
2023/10/15 01:07:46;;;;;;;2.72;0.90;;;;;;;4.71;100.00;93205.66;2095369;28;20070;-81
2023/10/15 01:08:47;;;;;;;4.53;1.15;;;;;;;4.89;100.00;93199.63;2107274;28;20776;-81
2023/10/15 01:09:48;;;;;;;3.58;0.95;;;;;;;4.77;100.00;93204.13;2105621;28;20016;-82
2023/10/15 01:10:53;;;;;;;2.83;0.88;;;;;;;4.69;100.00;93201.84;2099839;28;20029;-81
2023/10/15 01:11:58;;;;;;;2.65;0.98;;;;;;;4.78;100.00;93200.38;2106069;28;20028;-82
2023/10/15 01:13:05;;;;;;;3.47;0.90;;;;;;;4.86;100.00;93195.81;2098969;28;20056;-81
2023/10/15 01:14:10;;;;;;;3.67;1.00;;;;;;;4.69;100.00;93199.97;2098134;28;20118;-81
2023/10/15 01:15:11;;;;;;;2.10;0.82;;;;;;;4.71;100.00;93197.72;2098113;28;20690;-82
2023/10/15 01:16:17;;;;;;;3.53;0.90;;;;;;;4.73;100.00;93199.97;2103240;28;20028;-81
2023/10/15 01:17:23;;;;;;;3.53;0.98;;;;;;;4.53;100.00;93196.94;2111102;28;20094;-81
2023/10/15 01:18:24;;;;;;;5.25;1.05;;;;;;;4.79;100.00;93193.19;2097479;28;20105;-81
2023/10/15 01:19:56;;;;;;;3.53;1.50;;;;;;;5.04;100.00;93191.28;2089168;28;20500;-81
2023/10/15 01:21:01;;;;;;;4.05;1.00;;;;;;;4.96;100.00;93197.75;2110358;28;20031;-81
2023/10/15 01:22:08;;;;;;;2.92;0.93;;;;;;;4.90;100.00;93201.13;2097642;28;20622;-81
2023/10/15 01:23:28;;;;;;;1.80;0.90;;;;;;;5.03;100.00;93196.97;2097383;28;20112;-82
2023/10/15 01:24:38;;;;;;;;;;;;;;;5.00;100.00;93193.22;2112013;28;20061;-82
2023/10/15 01:25:48;;;;;;;5.68;1.20;;;;;;;4.93;100.00;93200.38;2097822;28;19919;-82
2023/10/15 01:27:09;;;;;;;2.45;1.15;;;;;;;5.08;100.00;93193.19;2090786;28;20044;-81
2023/10/15 01:28:11;;;;;;;2.85;1.10;;;;;;;4.88;100.00;93193.56;2100512;28;20519;-81
2023/10/15 01:29:18;;;;;;;3.72;1.15;;;;;;;4.95;100.00;93203.41;2097251;28;20025;-81
2023/10/15 01:30:20;;;;;;;2.10;1.05;;;;;;;4.98;100.00;93203.41;2097162;28;20119;-82
2023/10/15 01:31:24;;;;;;;2.25;1.05;;;;;;;5.06;100.00;93196.22;2089118;28;20432;-82
2023/10/15 01:32:25;;;;;;;2.13;1.00;;;;;;;5.00;100.00;93198.50;2097648;28;20033;-82
2023/10/15 01:33:28;;;;;;;4.03;1.27;;;;;;;4.83;100.00;93198.47;2089170;28;20497;-81
2023/10/15 01:34:34;;;;;;;4.00;1.20;;;;;;;5.13;100.00;93196.22;2089176;28;20025;-82
2023/10/15 01:35:38;;;;;;;6.03;1.30;;;;;;;5.18;100.00;93195.84;2098359;28;20035;-82
2023/10/15 01:36:39;;;;;;;2.97;1.00;;;;;;;5.11;100.00;93193.19;2089493;28;20140;-82
2023/10/15 01:37:58;;;;;;;2.70;1.05;;;;;;;5.01;100.00;93199.25;2088970;28;20021;-82
2023/10/15 01:39:09;;;;;;;4.80;1.10;;;;;;;4.91;100.00;93198.09;2091089;28;20485;-82
2023/10/15 01:41:13;;;;;;;4.97;1.20;;;;;;;4.95;100.00;93196.22;2097276;28;20024;-81
2023/10/15 01:42:53;;;;;;;5.13;1.20;;;;;;;4.97;100.00;93199.25;2097504;28;20024;-82
2023/10/15 01:43:46;;;;;;;3.53;1.17;;;;;;;4.98;100.00;93208.72;2101672;28;20035;-82
2023/10/15 01:44:49;;;;;;;2.95;1.27;;;;;;;4.86;100.00;93203.78;2097184;28;20052;-82
2023/10/15 01:45:56;;;;;;;1.65;1.00;;;;;;;4.73;100.00;93205.25;2087508;28;20124;-82
2023/10/15 01:47:07;;;;;;;3.78;1.10;;;;;;;4.91;100.00;93200.75;2082458;28;20021;-82
2023/10/15 01:49:31;;;;;;;3.80;1.52;;;;;;;4.74;100.00;93207.56;2103584;28;20152;-82
2023/10/15 01:50:44;;;;;;;5.53;1.10;;;;;;;4.76;100.00;93201.88;2097560;28;20034;-81
2023/10/15 01:51:45;;;;;;;6.25;1.35;;;;;;;4.89;100.00;93207.56;2099037;28;20028;-82
2023/10/15 01:52:46;;;;;;;3.83;1.13;;;;;;;4.79;100.00;93203.78;2090736;28;20017;-81
2023/10/15 01:53:48;;;;;;;4.43;1.08;;;;;;;4.66;100.00;93206.03;2089027;28;20036;-82
2023/10/15 01:54:49;;;;;;;5.32;1.30;;;;;;;4.61;100.00;93205.63;2097171;28;20036;-82
2023/10/15 01:55:59;;;;;;;3.88;2.10;;;;;;;4.69;100.00;93202.59;2094179;28;20036;-82
2023/10/15 01:57:06;;;;;;;5.18;1.35;;;;;;;4.82;100.00;93199.59;2091371;28;20029;-82
2023/10/15 01:58:12;;;;;;;3.10;1.38;;;;;;;4.86;100.00;93205.66;2097111;28;20043;-82
2023/10/15 01:59:16;;;;;;;2.83;1.10;;;;;;;4.99;100.00;93199.63;2094407;28;20091;-82
2023/10/15 02:00:33;;;;;;;3.03;1.30;;;;;;;4.90;100.00;93206.44;2097810;28;20028;-82
2023/10/15 02:01:40;;;;;;;3.58;1.98;;;;;;;4.86;100.00;93208.31;2104204;28;20036;-82
2023/10/15 02:02:42;;;;;;;2.67;1.30;;;;;;;4.65;100.00;93207.13;2097776;28;20373;-82
2023/10/15 02:03:43;;;;;;;3.75;1.30;;;;;;;4.71;100.00;93204.91;2097474;28;20032;-82
2023/10/15 02:04:44;;;;;;;2.17;1.20;;;;;;;4.74;100.00;93202.25;2098787;28;20029;-82
2023/10/15 02:05:45;;;;;;;3.03;1.27;;;;;;;4.65;100.00;93209.78;2090217;28;20017;-82
2023/10/15 02:06:46;;;;;;;3.30;1.15;;;;;;;4.61;100.00;93200.31;2097119;28;20059;-82
2023/10/15 02:07:47;;;;;;;3.80;1.25;;;;;;;4.64;100.00;93208.28;2087210;28;20039;-82
2023/10/15 02:08:51;;;;;;;4.22;1.40;;;;;;;4.67;100.00;93191.66;2097141;28;20127;-82
2023/10/15 02:09:52;;;;;;;5.60;1.50;;;;;;;4.75;100.00;93195.06;2104790;28;20026;-82
2023/10/15 02:10:54;;;;;;;5.45;1.20;;;;;;;4.67;100.00;93198.84;2094149;28;20029;-82
2023/10/15 02:11:55;;;;;;;4.50;1.30;;;;;;;4.65;100.00;93201.09;2088988;28;20035;-83
2023/10/15 02:13:15;;;;;;;3.70;1.23;;;;;;;4.47;100.00;93195.75;2091982;28;20024;-82
2023/10/15 02:14:34;;;;;;;5.05;1.45;;;;;;;4.64;100.00;93197.69;2099946;28;20082;-82
2023/10/15 02:15:39;;;;;;;4.15;1.23;;;;;;;4.68;100.00;93192.41;2096247;28;20020;-81
2023/10/15 02:16:40;;;;;;;3.63;1.30;;;;;;;4.55;100.00;93184.81;2089774;28;20121;-82
2023/10/15 02:17:43;;;;;;;2.33;1.20;;;;;;;4.54;100.00;93195.78;2091508;28;20039;-81
2023/10/15 02:18:51;;;;;;;3.13;1.20;;;;;;;4.50;100.00;93184.44;2089344;28;20171;-82
2023/10/15 02:19:55;;;;;;;5.03;1.42;;;;;;;4.64;100.00;93189.00;2089890;28;20082;-82
2023/10/15 02:23:48;;;;;;;;;;;;;;;3.84;100.00;93187.22;2148783;27;20117;-80
2023/10/15 02:24:49;;;;;;;2.33;1.17;;;;;;;3.79;100.00;93188.34;2115556;27;19957;-82
2023/10/15 02:25:57;;;;;;;2.72;1.10;;;;;;;3.71;100.00;93189.44;2106246;28;20055;-82
2023/10/15 02:26:59;;;;;;;2.35;1.15;;;;;;;4.02;100.00;93180.13;2106918;27;20028;-82
2023/10/15 02:28:00;;;;;;;3.67;1.20;;;;;;;4.00;100.00;93179.00;2110368;28;20023;-82
2023/10/15 02:29:35;;;;;;;6.20;1.38;;;;;;;3.89;100.00;93180.81;2103963;28;20043;-83
2023/10/15 02:30:32;;;;;;;3.05;1.25;;;;;;;4.04;100.00;93188.47;2118665;27;20038;-82
2023/10/15 02:31:41;;;;;;;1.80;1.30;;;;;;;4.02;100.00;93185.41;2136743;27;20026;-82
2023/10/15 02:32:43;;;;;;;4.63;1.48;;;;;;;3.91;100.00;93181.22;2120338;27;20115;-82
2023/10/15 02:33:47;;;;;;;1.98;1.27;;;;;;;3.84;100.00;93191.75;2096832;28;20074;-82
2023/10/15 02:34:57;;;;;;;5.93;1.48;;;;;;;3.81;100.00;93190.59;2115061;27;20016;-82
2023/10/15 02:35:59;;;;;;;;;;;;;;;3.83;100.00;93190.25;2101809;27;20444;-80
2023/10/15 02:37:03;;;;;;;2.58;1.05;;;;;;;3.95;100.00;93188.03;2113292;28;19954;-81
2023/10/15 02:38:10;;;;;;;3.55;1.10;;;;;;;3.77;100.00;93195.13;2114291;27;20519;-82
2023/10/15 02:39:11;;;;;;;3.88;1.10;;;;;;;3.81;100.00;93195.88;2115071;28;20102;-82
2023/10/15 02:40:19;;;;;;;3.63;1.10;;;;;;;3.80;100.00;93191.75;2121603;28;20015;-82
2023/10/15 02:41:31;;;;;;;2.78;1.23;;;;;;;3.71;100.00;93186.03;2106579;28;20581;-82
2023/10/15 02:42:34;;;;;;;4.78;1.40;;;;;;;3.75;100.00;93187.56;2123122;27;20019;-81
2023/10/15 02:43:48;;;;;;;2.22;1.20;;;;;;;3.62;100.00;93193.53;2113149;28;20047;-83
2023/10/15 02:44:51;;;;;;;4.18;1.23;;;;;;;3.72;100.00;93188.28;2114853;28;20047;-81
2023/10/15 02:45:53;;;;;;;1.67;1.13;;;;;;;3.76;100.00;93183.78;2104623;28;20074;-82
2023/10/15 02:47:06;;;;;;;1.88;1.20;;;;;;;3.59;100.00;93183.69;2104206;28;20048;-82
2023/10/15 02:48:10;;;;;;;3.03;1.50;;;;;;;3.53;100.00;93185.94;2112433;27;20028;-82
2023/10/15 02:49:15;;;;;;;3.20;1.35;;;;;;;3.48;100.00;93189.69;2114545;27;20044;-82
2023/10/15 02:50:17;;;;;;;1.73;1.17;;;;;;;3.63;100.00;93195.03;2118884;27;20032;-81
2023/10/15 02:51:26;;;;;;;2.10;1.10;;;;;;;3.61;100.00;93186.75;2127226;27;20015;-81
2023/10/15 02:52:35;;;;;;;3.60;1.25;;;;;;;3.57;100.00;93184.06;2125439;27;20023;-82
2023/10/15 02:53:39;;;;;;;2.80;1.13;;;;;;;3.50;100.00;93182.13;2119844;27;20067;-82
2023/10/15 02:54:40;;;;;;;2.72;1.40;;;;;;;3.45;100.00;93184.38;2110376;28;20119;-81
2023/10/15 02:55:47;;;;;;;7.35;1.58;;;;;;;3.36;100.00;93181.28;2109332;28;20028;-83
2023/10/15 02:56:48;;;;;;;2.97;1.40;;;;;;;3.43;100.00;93186.63;2120560;27;20019;-82
2023/10/15 02:57:51;;;;;;;2.40;1.10;;;;;;;3.49;100.00;93180.63;2125973;27;20046;-82
2023/10/15 02:58:54;;;;;;;3.33;1.35;;;;;;;3.55;100.00;93186.31;2121177;27;20329;-82
2023/10/15 02:59:55;;;;;;;4.15;1.42;;;;;;;3.58;100.00;93182.94;2113489;28;20030;-83
2023/10/15 03:00:59;;;;;;;4.63;1.55;;;;;;;3.57;100.00;93189.34;2112794;28;20020;-81
2023/10/15 03:02:06;;;;;;;2.75;1.27;;;;;;;3.49;100.00;93185.16;2105002;28;20070;-83
2023/10/15 03:03:08;;;;;;;2.20;1.52;;;;;;;3.60;100.00;93179.91;2097631;28;20111;-82
2023/10/15 03:04:09;;;;;;;6.30;1.20;;;;;;;3.59;100.00;93183.69;2097549;28;20024;-82
2023/10/15 03:05:15;;;;;;;2.83;1.58;;;;;;;3.59;100.00;93181.06;2104866;28;20025;-82
2023/10/15 03:06:31;;;;;;;3.88;1.10;;;;;;;3.70;100.00;93176.59;2108562;28;20834;-81
2023/10/15 03:07:33;;;;;;;4.78;1.40;;;;;;;3.63;100.00;93177.28;2118915;27;20385;-83
2023/10/15 03:08:36;;;;;;;3.00;1.40;;;;;;;3.83;100.00;93169.84;2121168;27;20034;-82
2023/10/15 03:09:36;;;;;;;3.30;1.23;;;;;;;3.68;100.00;93176.19;2121792;27;20029;-82
2023/10/15 03:10:47;;;;;;;3.65;1.20;;;;;;;3.87;100.00;93180.44;2129759;27;20127;-82
2023/10/15 03:11:51;;;;;;;4.43;1.30;;;;;;;3.82;100.00;93184.22;2135716;27;20025;-82
2023/10/15 03:12:52;;;;;;;3.95;1.40;;;;;;;3.76;100.00;93186.44;2121701;27;20481;-82
2023/10/15 03:13:54;;;;;;;2.60;1.40;;;;;;;3.82;100.00;93184.22;2116955;28;20027;-81
2023/10/15 03:14:55;;;;;;;2.50;1.30;;;;;;;3.83;100.00;93188.38;2105478;28;20021;-82
2023/10/15 03:15:57;;;;;;;6.40;1.40;;;;;;;3.84;100.00;93183.81;2113236;27;20110;-81
2023/10/15 03:17:00;;;;;;;4.95;1.52;;;;;;;3.73;100.00;93181.13;2102967;28;20539;-82
2023/10/15 03:18:02;;;;;;;1.98;1.52;;;;;;;3.79;100.00;93183.06;2098985;28;20033;-82
2023/10/15 03:19:24;;;;;;;4.03;1.60;;;;;;;3.82;100.00;93186.06;2104782;28;20024;-81
2023/10/15 03:20:26;;;;;;;1.92;1.20;;;;;;;3.90;100.00;93182.34;2107274;28;20020;-83
2023/10/15 03:21:30;;;;;;;1.85;1.30;;;;;;;3.95;100.00;93177.47;2114086;27;20113;-83
2023/10/15 03:22:31;;;;;;;2.42;1.40;;;;;;;3.93;100.00;93184.25;2112443;28;20423;-81
2023/10/15 03:23:32;;;;;;;5.38;1.30;;;;;;;3.98;100.00;93178.59;2104244;28;20040;-83
2023/10/15 03:24:34;;;;;;;2.67;1.10;;;;;;;4.01;100.00;93181.25;2105916;28;20562;-82
2023/10/15 03:25:35;;;;;;;2.58;1.30;;;;;;;4.24;100.00;93185.50;2104405;28;20351;-82
2023/10/15 03:26:36;;;;;;;2.40;1.10;;;;;;;4.20;100.00;93182.06;2117754;27;20141;-83
2023/10/15 03:27:37;;;;;;;2.35;1.10;;;;;;;4.10;100.00;93185.44;2115594;28;20023;-81
2023/10/15 03:28:44;;;;;;;2.85;1.20;;;;;;;4.19;100.00;93177.91;2110033;28;20027;-81
2023/10/15 03:29:45;;;;;;;3.58;1.40;;;;;;;4.06;100.00;93174.84;2106478;28;20043;-81
2023/10/15 03:30:46;;;;;;;2.13;1.00;;;;;;;3.99;100.00;93178.22;2102167;28;20028;-82
2023/10/15 03:31:48;;;;;;;1.55;0.93;;;;;;;4.18;100.00;93184.34;2102963;28;20024;-81
2023/10/15 03:32:52;;;;;;;2.55;1.10;;;;;;;4.27;100.00;93182.09;2105323;28;20107;-83
2023/10/15 03:35:17;;;;;;;3.60;1.30;;;;;;;4.29;100.00;93185.88;2102549;27;20085;-83
2023/10/15 03:36:24;;;;;;;3.42;1.10;;;;;;;4.25;100.00;93187.75;2111456;28;20015;-82
2023/10/15 03:37:27;;;;;;;2.45;1.08;;;;;;;4.21;100.00;93191.53;2108096;27;20087;-83
2023/10/15 03:38:34;;;;;;;1.30;1.00;;;;;;;4.19;100.00;93189.25;2107318;28;20024;-82
2023/10/15 03:40:50;;;;;;;0.85;0.80;;;;;;;4.41;100.00;93190.06;2099578;28;20101;-82
2023/10/15 03:42:08;;;;;;;2.05;1.02;;;;;;;4.42;100.00;93191.59;2107122;28;20036;-81
2023/10/15 03:43:15;;;;;;;1.67;1.05;;;;;;;4.34;100.00;93190.06;2100834;28;20027;-82
2023/10/15 03:44:24;;;;;;;1.27;0.90;;;;;;;4.42;100.00;93186.28;2098281;28;20024;-82
2023/10/15 03:45:27;;;;;;;1.63;0.98;;;;;;;4.42;100.00;93188.94;2092437;28;20031;-81
2023/10/15 03:46:33;;;;;;;2.78;0.98;;;;;;;4.39;100.00;93186.28;2099110;28;20016;-81
2023/10/15 03:47:39;;;;;;;1.58;1.00;;;;;;;4.43;100.00;93195.00;2102375;28;20432;-82
2023/10/15 03:48:47;;;;;;;2.25;0.90;;;;;;;4.50;100.00;93195.78;2105005;28;20051;-83
2023/10/15 03:49:51;;;;;;;2.13;1.10;;;;;;;4.60;100.00;93191.63;2102732;28;20032;-82
2023/10/15 03:50:55;;;;;;;2.33;1.30;;;;;;;4.73;100.00;93184.84;2101258;28;20068;-83
2023/10/15 03:51:56;;;;;;;1.35;1.00;;;;;;;4.75;100.00;93197.72;2098908;28;20040;-82
2023/10/15 03:52:57;;;;;;;4.35;1.20;;;;;;;4.67;100.00;93190.91;2090168;28;20049;-81
2023/10/15 03:54:06;;;;;;;2.70;0.80;;;;;;;4.63;100.00;93184.84;2082130;28;20025;-82
2023/10/15 03:55:07;;;;;;;3.03;1.20;;;;;;;4.69;100.00;93188.63;2098495;28;20457;-83
2023/10/15 03:56:08;;;;;;;3.45;0.93;;;;;;;4.74;100.00;93183.72;2091420;28;20033;-82
2023/10/15 03:57:09;;;;;;;4.22;1.10;;;;;;;4.70;100.00;93182.22;2090344;28;20017;-82
2023/10/15 03:58:13;;;;;;;2.65;1.00;;;;;;;4.92;100.00;93186.38;2098222;28;20024;-82
2023/10/15 03:59:14;;;;;;;1.50;0.82;;;;;;;4.86;100.00;93182.59;2090831;28;20021;-81
2023/10/15 04:00:26;;;;;;;1.90;1.17;;;;;;;4.79;100.00;93177.31;2106642;28;20116;-82
2023/10/15 04:01:30;;;;;;;1.00;0.77;;;;;;;4.78;100.00;93179.19;2106543;28;20089;-82
2023/10/15 04:02:54;;;;;;;3.33;1.15;;;;;;;4.70;100.00;93182.97;2099040;28;20020;-82
2023/10/15 04:03:56;;;;;;;1.38;0.90;;;;;;;4.74;100.00;93177.66;2101776;28;20446;-81
2023/10/15 04:05:11;;;;;;;2.72;1.08;;;;;;;4.72;100.00;93175.38;2102331;28;20024;-81
2023/10/15 04:06:34;;;;;;;1.55;0.88;;;;;;;4.80;100.00;93178.81;2096141;28;20489;-81
2023/10/15 04:07:39;;;;;;;1.95;1.05;;;;;;;4.72;100.00;93180.69;2100496;28;20028;-82
2023/10/15 04:08:59;;;;;;;2.45;1.08;;;;;;;4.61;100.00;93184.44;2101669;27;20072;-81
2023/10/15 04:10:04;;;;;;;2.72;1.05;;;;;;;4.63;100.00;93182.19;2104339;28;20035;-81
2023/10/15 04:11:07;;;;;;;2.58;1.10;;;;;;;4.68;100.00;93179.91;2108935;27;20024;-82
2023/10/15 04:12:08;;;;;;;3.10;1.17;;;;;;;4.73;100.00;93184.09;2106833;28;20028;-82
2023/10/15 04:13:09;;;;;;;3.92;1.20;;;;;;;4.68;100.00;93190.50;2098257;28;20023;-82
2023/10/15 04:14:34;;;;;;;3.13;1.23;;;;;;;4.65;100.00;93188.59;2098624;28;20047;-82
2023/10/15 04:15:34;;;;;;;2.20;1.10;;;;;;;4.73;100.00;93184.84;2095883;28;20059;-83
2023/10/15 04:16:35;;;;;;;2.55;0.90;;;;;;;4.75;100.00;93192.44;2103750;28;20027;-83
2023/10/15 04:17:36;;;;;;;4.35;1.10;;;;;;;4.71;100.00;93192.41;2098139;28;20066;-82
2023/10/15 04:18:40;;;;;;;2.17;1.08;;;;;;;4.76;100.00;93193.94;2098410;28;20073;-82
2023/10/15 04:19:42;;;;;;;3.42;1.70;;;;;;;4.78;100.00;93184.50;2096984;28;20025;-82
2023/10/15 04:20:43;;;;;;;1.90;1.10;;;;;;;4.75;100.00;93187.13;2090475;28;20397;-82
2023/10/15 04:21:45;;;;;;;3.67;1.13;;;;;;;4.67;100.00;93191.66;2097850;28;20039;-83
2023/10/15 04:22:47;;;;;;;3.38;0.93;;;;;;;4.73;100.00;93184.09;2089752;28;20076;-82
2023/10/15 04:23:54;;;;;;;2.20;1.10;;;;;;;4.76;100.00;93183.34;2090266;28;20028;-82
2023/10/15 04:24:55;;;;;;;2.95;1.00;;;;;;;4.83;100.00;93188.66;2095500;28;20477;-82
2023/10/15 04:26:02;;;;;;;2.35;1.15;;;;;;;4.87;100.00;93184.09;2098275;28;20039;-82
2023/10/15 04:27:06;;;;;;;4.18;1.05;;;;;;;4.84;100.00;93186.75;2100081;28;20029;-82
2023/10/15 04:28:14;;;;;;;2.60;1.15;;;;;;;4.96;100.00;93181.06;2103169;28;20108;-82
2023/10/15 04:29:18;;;;;;;5.15;1.27;;;;;;;5.01;100.00;93186.03;2102193;27;20056;-82
2023/10/15 04:30:25;;;;;;;3.83;1.02;;;;;;;4.98;100.00;93184.88;2109054;27;20051;-83
2023/10/15 04:31:29;;;;;;;2.88;1.02;;;;;;;5.03;100.00;93181.09;2110539;28;20050;-82
2023/10/15 04:33:41;;;;;;;4.40;1.23;;;;;;;5.03;100.00;93178.44;2092710;28;20025;-82
2023/10/15 04:34:42;;;;;;;2.80;1.40;;;;;;;5.05;100.00;93173.53;2100058;28;20619;-81
2023/10/15 04:35:44;;;;;;;6.15;1.20;;;;;;;4.98;100.00;93178.81;2090103;28;20032;-83
2023/10/15 04:36:45;;;;;;;3.25;1.15;;;;;;;5.03;100.00;93184.50;2089776;28;20427;-82
2023/10/15 04:37:50;;;;;;;3.60;1.20;;;;;;;5.00;100.00;93187.13;2094146;28;20100;-83
2023/10/15 04:39:08;;;;;;;2.95;1.55;;;;;;;5.00;100.00;93193.22;2090401;28;20439;-82
2023/10/15 04:40:12;;;;;;;1.85;1.02;;;;;;;5.00;100.00;93179.97;2091943;28;20062;-82
2023/10/15 04:41:21;;;;;;;1.40;1.00;;;;;;;5.03;100.00;93192.44;2090675;28;20021;-82
2023/10/15 04:42:29;;;;;;;1.98;1.00;;;;;;;4.96;100.00;93194.31;2102114;28;20069;-82
2023/10/15 04:43:45;;;;;;;5.60;1.70;;;;;;;4.96;100.00;93183.72;2101291;28;20024;-82
2023/10/15 04:44:46;;;;;;;2.40;0.95;;;;;;;4.96;100.00;93191.66;2108432;28;20062;-82
2023/10/15 04:45:49;;;;;;;1.67;1.00;;;;;;;5.01;100.00;93189.41;2097918;28;20497;-82
2023/10/15 04:46:53;;;;;;;2.38;1.20;;;;;;;5.10;100.00;93189.03;2102468;27;20816;-82
2023/10/15 04:47:59;;;;;;;2.40;1.13;;;;;;;5.09;100.00;93189.41;2101487;28;20460;-82
2023/10/15 04:49:06;;;;;;;2.55;1.02;;;;;;;5.09;100.00;93192.81;2116159;27;20461;-82
2023/10/15 04:50:14;;;;;;;2.33;1.17;;;;;;;5.21;100.00;93192.44;2108364;28;20024;-82
2023/10/15 04:51:15;;;;;;;2.60;0.95;;;;;;;5.24;100.00;93193.56;2104580;28;20024;-82
2023/10/15 04:52:19;;;;;;;3.38;1.17;;;;;;;5.28;100.00;93191.69;2089863;28;20024;-82
2023/10/15 04:54:23;;;;;;;5.00;1.33;;;;;;;5.33;100.00;93182.59;2098215;28;20035;-82
2023/10/15 04:55:26;;;;;;;1.80;0.98;;;;;;;5.31;100.00;93177.66;2098056;28;20107;-82
2023/10/15 04:56:27;;;;;;;4.05;1.00;;;;;;;5.34;100.00;93173.50;2099701;28;20098;-83
2023/10/15 04:57:28;;;;;;;1.67;1.20;;;;;;;5.32;100.00;93184.50;2098148;28;20028;-83
2023/10/15 04:58:29;;;;;;;3.95;1.23;;;;;;;5.54;100.00;93180.66;2097879;28;20043;-82
2023/10/15 04:59:32;;;;;;;4.20;1.25;;;;;;;5.61;100.00;93193.16;2089335;28;20031;-81
2023/10/15 05:00:49;;;;;;;1.98;0.90;;;;;;;5.73;100.00;93197.31;2081917;28;20048;-82
2023/10/15 05:01:51;;;;;;;2.33;0.82;;;;;;;5.80;100.00;93189.34;2097526;28;20410;-82
2023/10/15 05:02:52;;;;;;;2.92;1.30;;;;;;;5.74;100.00;93194.25;2089610;28;20111;-82
2023/10/15 05:03:53;;;;;;;3.30;1.02;;;;;;;5.67;100.00;93193.53;2105051;28;20020;-82
2023/10/15 05:04:54;;;;;;;3.50;1.15;;;;;;;5.60;100.00;93185.59;2110598;28;20553;-83
2023/10/15 05:06:03;;;;;;;1.92;1.10;;;;;;;5.65;100.00;93191.25;2106093;28;20016;-82
2023/10/15 05:07:05;;;;;;;2.40;1.13;;;;;;;5.51;100.00;93188.63;2109561;28;20110;-82
2023/10/15 05:08:10;;;;;;;6.05;1.20;;;;;;;5.50;100.00;93201.13;2089805;28;20502;-82
2023/10/15 05:09:21;;;;;;;2.42;1.70;;;;;;;5.50;100.00;93197.72;2100129;28;20035;-82
2023/10/15 05:10:23;;;;;;;;;;;;;;;5.53;100.00;93196.94;2104934;27;20020;-80
2023/10/15 05:11:24;;;;;;;1.95;1.15;;;;;;;5.56;100.00;93186.34;2102416;28;19923;-82
2023/10/15 05:12:26;;;;;;;3.47;1.50;;;;;;;5.52;100.00;93190.88;2106438;28;20031;-82
2023/10/15 05:13:27;;;;;;;3.70;1.23;;;;;;;5.55;100.00;93184.84;2109069;28;20077;-83
2023/10/15 05:14:28;;;;;;;3.70;1.05;;;;;;;5.53;100.00;93191.63;2097789;28;20115;-82
2023/10/15 05:15:29;;;;;;;4.00;1.38;;;;;;;5.53;100.00;93187.13;2097714;28;20029;-83
2023/10/15 05:16:31;;;;;;;2.92;0.93;;;;;;;5.55;100.00;93192.78;2092453;28;20028;-82
2023/10/15 05:17:33;;;;;;;1.67;1.00;;;;;;;5.57;100.00;93187.09;2091472;28;20020;-82
2023/10/15 05:18:34;;;;;;;2.88;1.02;;;;;;;5.46;100.00;93183.72;2097862;28;20024;-82
2023/10/15 05:19:35;;;;;;;2.92;1.08;;;;;;;5.53;100.00;93184.47;2106367;28;20441;-83